Time;durP1;ratioP1;P1;durP2;ratioP2;P2;SDS_P1;SDS_P2;PMS_P1;PMS_P2;Temp;Humidity;BMP_temperature;BMP_pressure;BME280_temperature;BME280_humidity;BME280_pressure;Samples;Min_cycle;Max_cycle;Signal;HPM_P1;HPM_P2
2022/03/30 00:01:16;;;;;;;21.55;14.23;;;9.30;62.00;;;;;;5073824;28;20200;-88
2022/03/30 00:03:43;;;;;;;23.03;14.07;;;9.40;61.30;;;;;;5075383;28;20236;-86
2022/03/30 00:06:10;;;;;;;17.83;14.15;;;9.50;60.80;;;;;;5085621;28;21277;-88
2022/03/30 00:08:37;;;;;;;17.65;13.48;;;9.60;62.50;;;;;;5082629;28;20214;-87
2022/03/30 00:11:06;;;;;;;19.35;14.82;;;9.60;63.20;;;;;;5086054;28;20868;-87
2022/03/30 00:13:35;;;;;;;25.95;15.85;;;9.60;62.50;;;;;;5076322;28;20200;-87
2022/03/30 00:16:06;;;;;;;21.17;15.00;;;9.60;62.40;;;;;;5076888;28;20225;-87
2022/03/30 00:18:33;;;;;;;17.67;13.13;;;9.60;62.50;;;;;;5074779;28;20625;-87
2022/03/30 00:21:01;;;;;;;25.43;15.93;;;9.60;62.30;;;;;;5076197;28;20620;-87
2022/03/30 00:23:29;;;;;;;23.70;14.87;;;9.70;62.70;;;;;;5082791;28;20742;-87
2022/03/30 00:25:57;;;;;;;22.55;14.20;;;9.70;62.30;;;;;;5070282;28;20624;-87
2022/03/30 00:28:28;;;;;;;20.63;13.90;;;9.70;62.70;;;;;;5088631;28;20202;-87
2022/03/30 00:30:56;;;;;;;23.70;15.83;;;9.80;62.10;;;;;;5080805;28;21210;-87
2022/03/30 00:33:24;;;;;;;18.70;14.17;;;9.80;63.10;;;;;;5073322;28;21001;-87
2022/03/30 00:35:51;;;;;;;26.83;15.35;;;9.80;63.30;;;;;;5090173;28;20932;-88
2022/03/30 00:38:18;;;;;;;28.80;16.30;;;9.80;63.40;;;;;;5089023;28;20577;-87
2022/03/30 00:40:46;;;;;;;20.53;14.13;;;9.80;63.30;;;;;;5073753;28;20621;-88
2022/03/30 00:43:13;;;;;;;23.90;15.60;;;9.80;63.10;;;;;;5082872;28;21196;-87
2022/03/30 00:45:42;;;;;;;18.77;13.83;;;9.80;62.90;;;;;;5076230;28;20628;-87
2022/03/30 00:48:09;;;;;;;18.93;14.93;;;9.90;63.10;;;;;;5081664;28;20621;-87
2022/03/30 00:50:37;;;;;;;30.43;15.50;;;9.80;64.10;;;;;;5082613;28;20649;-87
2022/03/30 00:53:04;;;;;;;23.40;14.47;;;9.80;63.00;;;;;;5080714;28;20727;-87
2022/03/30 00:55:32;;;;;;;20.90;13.53;;;9.90;62.60;;;;;;5071865;28;20627;-86
2022/03/30 00:58:00;;;;;;;22.80;15.67;;;9.90;64.00;;;;;;5070962;28;20666;-86
2022/03/30 01:00:27;;;;;;;28.50;16.53;;;10.00;62.00;;;;;;5050337;28;20740;-87
2022/03/30 01:02:56;;;;;;;19.73;15.10;;;9.90;64.20;;;;;;5050668;28;20614;-87
2022/03/30 01:05:23;;;;;;;25.13;15.93;;;9.80;64.00;;;;;;5080736;28;20685;-87
2022/03/30 01:07:50;;;;;;;21.87;14.30;;;9.90;63.50;;;;;;5084739;28;20727;-87
2022/03/30 01:10:19;;;;;;;22.60;14.27;;;10.00;61.90;;;;;;5089729;28;20634;-87
2022/03/30 01:12:52;;;;;;;18.13;15.80;;;10.00;62.20;;;;;;5081020;28;20635;-88
2022/03/30 01:15:20;;;;;;;22.43;13.77;;;10.00;62.40;;;;;;5079542;28;20636;-87
2022/03/30 01:17:47;;;;;;;20.00;14.57;;;10.00;63.20;;;;;;5071080;28;20620;-87
2022/03/30 01:20:21;;;;;;;25.60;16.10;;;10.00;64.40;;;;;;5069796;28;20623;-88
2022/03/30 01:22:51;;;;;;;21.67;15.73;;;10.00;64.00;;;;;;5069408;28;21172;-87
2022/03/30 01:25:19;;;;;;;20.80;16.23;;;10.00;63.40;;;;;;5087096;28;20673;-87
2022/03/30 01:27:46;;;;;;;19.57;15.27;;;10.10;64.50;;;;;;5089683;28;20604;-87
2022/03/30 01:33:03;;;;;;;24.60;15.93;;;10.00;63.20;;;;;;5081968;28;20741;-87
2022/03/30 01:35:30;;;;;;;25.97;15.57;;;10.10;63.80;;;;;;5088365;28;20621;-86
2022/03/30 01:37:59;;;;;;;21.43;15.33;;;10.10;63.30;;;;;;5085543;28;20684;-86
2022/03/30 01:40:27;;;;;;;19.10;13.80;;;10.10;63.30;;;;;;5070395;28;20617;-87
2022/03/30 01:42:54;;;;;;;25.83;15.70;;;10.10;63.50;;;;;;5073761;28;20703;-87
2022/03/30 01:45:23;;;;;;;20.53;14.97;;;10.00;64.30;;;;;;5068772;28;20644;-87
2022/03/30 01:47:52;;;;;;;23.53;16.20;;;9.90;64.90;;;;;;5085242;28;20620;-87
2022/03/30 01:50:19;;;;;;;22.70;15.80;;;9.80;65.40;;;;;;5077821;28;20625;-87
2022/03/30 01:52:46;;;;;;;21.47;15.73;;;9.90;65.30;;;;;;5085015;28;20701;-87
2022/03/30 01:55:15;;;;;;;20.50;13.67;;;9.90;65.80;;;;;;5068543;28;20647;-87
2022/03/30 01:57:42;;;;;;;18.50;14.57;;;10.00;62.40;;;;;;5070107;28;20697;-87
2022/03/30 02:00:11;;;;;;;25.87;15.63;;;9.90;66.10;;;;;;5048974;28;20625;-87
2022/03/30 02:02:39;;;;;;;20.10;14.80;;;10.00;63.30;;;;;;5063428;28;20628;-87
2022/03/30 02:05:08;;;;;;;26.20;17.40;;;10.10;63.10;;;;;;5080269;28;20719;-87
2022/03/30 02:07:35;;;;;;;24.23;13.70;;;10.10;63.00;;;;;;5078488;28;20716;-86
2022/03/30 02:10:02;;;;;;;21.07;15.43;;;10.00;63.20;;;;;;5069063;28;20276;-87
2022/03/30 02:12:31;;;;;;;23.57;15.57;;;10.10;63.30;;;;;;5078945;28;20705;-87
2022/03/30 02:14:58;;;;;;;25.50;15.37;;;10.10;63.10;;;;;;5080212;28;21200;-86
2022/03/30 02:17:26;;;;;;;24.20;15.07;;;10.20;63.80;;;;;;5088017;28;21216;-87
2022/03/30 02:19:54;;;;;;;21.13;17.07;;;10.20;64.00;;;;;;5080792;28;21081;-87
2022/03/30 02:22:22;;;;;;;22.23;15.90;;;10.20;64.90;;;;;;5071426;28;20981;-86
2022/03/30 02:24:48;;;;;;;23.07;15.00;;;10.10;65.20;;;;;;5079873;28;20635;-87
2022/03/30 02:27:16;;;;;;;18.97;14.67;;;10.00;64.80;;;;;;5086448;28;20724;-87
2022/03/30 02:29:44;;;;;;;21.77;15.33;;;10.10;68.20;;;;;;5080110;28;20625;-87
2022/03/30 02:32:11;;;;;;;20.70;15.80;;;10.00;64.40;;;;;;5088879;28;20640;-87
2022/03/30 02:34:38;;;;;;;20.00;15.30;;;10.00;64.40;;;;;;5068769;28;20668;-87
2022/03/30 02:37:05;;;;;;;21.57;16.33;;;10.00;63.10;;;;;;5068009;28;20671;-87
2022/03/30 02:39:32;;;;;;;21.47;14.73;;;10.10;62.70;;;;;;5077074;28;20636;-87
2022/03/30 02:41:59;;;;;;;22.03;14.87;;;10.10;62.70;;;;;;5075221;28;20719;-87
2022/03/30 02:44:26;;;;;;;21.47;14.63;;;10.10;63.60;;;;;;5053800;28;21478;-87
2022/03/30 02:46:54;;;;;;;24.53;15.63;;;10.00;62.90;;;;;;5088100;28;21232;-87
2022/03/30 02:49:22;;;;;;;21.27;14.70;;;9.90;65.20;;;;;;5078302;28;20707;-87
2022/03/30 02:51:48;;;;;;;23.37;14.30;;;9.90;65.30;;;;;;5088847;28;21182;-87
2022/03/30 02:54:15;;;;;;;19.13;14.13;;;9.90;65.30;;;;;;5071368;28;21124;-87
2022/03/30 02:56:42;;;;;;;16.97;14.80;;;9.90;65.00;;;;;;5075882;28;21027;-87
2022/03/30 02:59:09;;;;;;;19.37;15.37;;;9.90;64.50;;;;;;5072871;28;20623;-87
2022/03/30 03:01:36;;;;;;;18.53;14.23;;;9.90;63.50;;;;;;5089160;28;20725;-87
2022/03/30 03:04:05;;;;;;;20.80;15.10;;;10.00;63.40;;;;;;5080645;28;20644;-87
2022/03/30 03:06:33;;;;;;;24.80;14.87;;;10.00;64.50;;;;;;5067790;28;20628;-87
2022/03/30 03:09:00;;;;;;;21.80;16.30;;;10.00;62.90;;;;;;5080852;28;20631;-86
2022/03/30 03:11:27;;;;;;;23.63;13.87;;;10.80;62.60;;;;;;5072327;28;20688;-87
2022/03/30 03:13:54;;;;;;;22.53;15.97;;;10.20;63.00;;;;;;5076113;28;20728;-86
2022/03/30 03:16:20;;;;;;;20.10;15.40;;;10.20;61.90;;;;;;5086100;28;20710;-87
2022/03/30 03:18:47;;;;;;;26.87;17.00;;;10.20;62.10;;;;;;5077712;28;20654;-87
2022/03/30 03:21:16;;;;;;;22.33;14.97;;;10.20;61.80;;;;;;5077077;28;20631;-87
2022/03/30 03:23:43;;;;;;;19.97;16.00;;;10.20;61.20;;;;;;5071955;28;21015;-87
2022/03/30 03:26:09;;;;;;;24.00;16.53;;;10.20;61.50;;;;;;5071719;28;20686;-87
2022/03/30 03:28:36;;;;;;;23.17;16.13;;;10.20;61.00;;;;;;5069146;28;20652;-87
2022/03/30 03:31:04;;;;;;;31.17;15.70;;;10.20;62.00;;;;;;5085024;28;20685;-86
2022/03/30 03:33:31;;;;;;;30.50;16.77;;;10.20;62.20;;;;;;5076708;28;20994;-87
2022/03/30 03:35:59;;;;;;;21.50;14.93;;;10.20;61.70;;;;;;5087668;28;20624;-87
2022/03/30 03:38:27;;;;;;;23.97;16.57;;;10.20;61.50;;;;;;5074164;28;20682;-86
2022/03/30 03:40:54;;;;;;;20.27;14.63;;;10.30;61.40;;;;;;5068912;28;21171;-87
2022/03/30 03:43:21;;;;;;;32.07;17.00;;;10.20;62.20;;;;;;5067931;28;21178;-87
2022/03/30 03:45:47;;;;;;;23.50;15.10;;;10.20;62.30;;;;;;5066918;28;20613;-87
2022/03/30 03:48:14;;;;;;;23.80;16.33;;;10.10;63.50;;;;;;5082246;28;20623;-87
2022/03/30 03:50:43;;;;;;;22.50;16.00;;;10.10;64.20;;;;;;5085409;28;20636;-87
2022/03/30 03:53:09;;;;;;;17.93;14.70;;;10.20;65.30;;;;;;5079312;28;20656;-87
2022/03/30 03:55:40;;;;;;;29.83;16.63;;;10.10;64.30;;;;;;5088504;28;20685;-87
2022/03/30 03:58:10;;;;;;;22.50;15.80;;;10.20;64.70;;;;;;5085985;28;20999;-87
2022/03/30 04:00:37;;;;;;;21.73;15.30;;;10.10;66.60;;;;;;5077405;28;20632;-87
2022/03/30 04:03:04;;;;;;;23.63;15.67;;;10.10;66.40;;;;;;5091558;28;20671;-87
2022/03/30 04:05:31;;;;;;;23.80;15.30;;;10.10;65.50;;;;;;5076184;28;20701;-86
2022/03/30 04:07:58;;;;;;;20.73;14.93;;;10.00;66.20;;;;;;5077748;28;20635;-87
2022/03/30 04:10:25;;;;;;;25.07;16.00;;;10.00;66.00;;;;;;5080998;28;20685;-86
2022/03/30 04:12:53;;;;;;;21.00;16.90;;;10.00;65.80;;;;;;5070946;28;21021;-87
2022/03/30 04:15:20;;;;;;;24.53;16.07;;;10.10;65.40;;;;;;5085663;28;21256;-86
2022/03/30 04:17:48;;;;;;;29.43;16.47;;;10.10;66.00;;;;;;5084472;28;20721;-86
2022/03/30 04:20:16;;;;;;;21.20;15.70;;;10.10;65.40;;;;;;5083821;28;20626;-87
2022/03/30 04:22:43;;;;;;;21.17;15.00;;;10.10;66.70;;;;;;5085837;28;21043;-87
2022/03/30 04:25:10;;;;;;;26.07;16.70;;;10.10;65.40;;;;;;5072016;28;20649;-87
2022/03/30 04:27:45;;;;;;;23.07;14.80;;;10.10;64.30;;;;;;5078893;28;20631;-87
2022/03/30 04:30:14;;;;;;;20.10;15.20;;;10.20;64.40;;;;;;5084152;28;21183;-87
2022/03/30 04:32:41;;;;;;;21.23;14.83;;;10.20;64.40;;;;;;5084770;28;20641;-88
2022/03/30 04:35:08;;;;;;;22.70;14.53;;;10.20;65.50;;;;;;5078347;28;20620;-86
2022/03/30 04:37:35;;;;;;;20.83;14.70;;;10.20;66.60;;;;;;5085001;28;21178;-86
2022/03/30 04:40:03;;;;;;;23.67;14.00;;;10.10;68.90;;;;;;5070589;28;21237;-86
2022/03/30 04:42:30;;;;;;;18.97;14.30;;;10.00;70.40;;;;;;5086566;28;20659;-85
2022/03/30 04:44:57;;;;;;;20.13;13.90;;;10.00;73.00;;;;;;5087165;28;20715;-86
2022/03/30 04:47:26;;;;;;;22.05;14.30;;;9.90;76.60;;;;;;5081051;28;21072;-87
2022/03/30 04:49:53;;;;;;;21.55;14.02;;;9.90;78.00;;;;;;5082536;28;20218;-87
2022/03/30 04:52:20;;;;;;;28.85;15.80;;;9.70;85.40;;;;;;5074087;28;20224;-87
2022/03/30 04:54:50;;;;;;;28.33;16.30;;;9.80;82.30;;;;;;5087934;28;20719;-87
2022/03/30 04:57:20;;;;;;;20.23;15.40;;;9.80;82.00;;;;;;5053883;28;21047;-87
2022/03/30 04:59:47;;;;;;;21.05;15.25;;;9.80;88.20;;;;;;5074026;28;21189;-87
2022/03/30 05:02:14;;;;;;;25.52;16.15;;;9.70;85.30;;;;;;5089480;28;20244;-87
2022/03/30 05:04:43;;;;;;;23.70;15.23;;;9.60;90.10;;;;;;5075712;28;20285;-87
2022/03/30 05:07:10;;;;;;;20.05;14.60;;;9.60;87.50;;;;;;5086672;28;20209;-87
2022/03/30 05:09:37;;;;;;;22.92;14.52;;;9.50;89.90;;;;;;5049551;28;20214;-86
2022/03/30 05:12:04;;;;;;;23.92;15.35;;;9.40;90.80;;;;;;5083529;28;20303;-85
2022/03/30 05:14:32;;;;;;;29.45;15.18;;;9.40;91.90;;;;;;5076327;28;20625;-85
2022/03/30 05:16:59;;;;;;;22.23;14.23;;;9.30;93.20;;;;;;5072382;28;20209;-86
2022/03/30 05:19:26;;;;;;;25.65;14.73;;;9.10;95.90;;;;;;5076472;28;20279;-86
2022/03/30 05:21:55;;;;;;;26.23;16.75;;;9.10;94.70;;;;;;5072203;28;20234;-86
2022/03/30 05:24:21;;;;;;;27.13;15.52;;;7.90;95.10;;;;;;5064802;28;20250;-86
2022/03/30 05:26:49;;;;;;;23.02;15.15;;;9.20;97.20;;;;;;5058789;28;20212;-85
2022/03/30 05:29:18;;;;;;;31.70;15.30;;;9.10;98.30;;;;;;5071195;28;20200;-88
2022/03/30 05:31:46;;;;;;;23.20;14.27;;;9.10;98.50;;;;;;5058160;28;20299;-86
2022/03/30 05:34:13;;;;;;;20.35;13.10;;;9.00;99.50;;;;;;5062271;28;20764;-86
2022/03/30 05:36:40;;;;;;;23.70;14.55;;;9.00;99.90;;;;;;5067426;28;20633;-88
2022/03/30 05:39:52;;;;;;;24.80;15.52;;;9.00;99.90;;;;;;5069117;28;20199;-89
2022/03/30 05:42:27;;;;;;;26.05;14.48;;;9.00;99.90;;;;;;5065224;28;20200;-87
2022/03/30 05:44:54;;;;;;;23.08;14.73;;;9.00;99.90;;;;;;5071318;28;20253;-86
2022/03/30 05:47:21;;;;;;;25.10;15.70;;;9.00;99.90;;;;;;5071085;28;20591;-86
2022/03/30 05:49:48;;;;;;;24.20;14.25;;;9.00;99.90;;;;;;5069130;28;20298;-86
2022/03/30 05:52:15;;;;;;;22.30;14.73;;;9.10;99.90;;;;;;5087238;28;20613;-86
2022/03/30 05:54:43;;;;;;;22.90;14.93;;;9.00;99.90;;;;;;5069697;28;20291;-86
2022/03/30 05:57:10;;;;;;;25.27;15.05;;;9.00;99.90;;;;;;5057714;28;20231;-86
2022/03/30 05:59:41;;;;;;;23.63;14.48;;;9.00;99.90;;;;;;5067935;28;20197;-88
2022/03/30 06:02:10;;;;;;;24.08;14.15;;;9.00;99.90;;;;;;5067893;28;20202;-88
2022/03/30 06:04:38;;;;;;;27.80;15.32;;;9.00;99.90;;;;;;5066673;28;20210;-88
2022/03/30 06:07:07;;;;;;;23.88;15.70;;;9.00;99.90;;;;;;5058155;28;20206;-87
2022/03/30 06:09:34;;;;;;;25.90;15.40;;;8.90;99.90;;;;;;5063135;28;20226;-88
2022/03/30 06:12:05;;;;;;;26.85;15.75;;;9.00;99.90;;;;;;5077059;28;20208;-91
2022/03/30 06:14:35;;;;;;;21.77;16.27;;;9.00;99.90;;;;;;5069106;28;20210;-88
2022/03/30 06:17:04;;;;;;;26.73;15.43;;;9.00;99.90;;;;;;5061711;28;20204;-88
2022/03/30 06:19:32;;;;;;;27.23;17.58;;;9.00;99.90;;;;;;5063309;28;20765;-88
2022/03/30 06:22:16;;;;;;;28.40;18.20;;;9.00;99.90;;;;;;5068147;28;20401;-89
2022/03/30 06:24:46;;;;;;;22.38;14.43;;;9.10;99.90;;;;;;5068077;28;20205;-89
2022/03/30 06:27:15;;;;;;;23.63;15.98;;;9.10;99.90;;;;;;5068378;28;20227;-89
2022/03/30 06:29:42;;;;;;;26.25;14.40;;;9.20;99.90;;;;;;5069252;28;20505;-87
2022/03/30 06:32:10;;;;;;;23.42;15.85;;;9.30;99.90;;;;;;5066662;28;20838;-88
2022/03/30 06:34:56;;;;;;;19.70;14.23;;;9.30;99.90;;;;;;5069904;28;20319;-90
2022/03/30 06:37:23;;;;;;;30.77;15.88;;;9.20;99.90;;;;;;5073381;28;20215;-88
2022/03/30 06:40:21;;;;;;;25.48;16.00;;;9.20;99.90;;;;;;5065880;28;20219;-90
2022/03/30 06:42:58;;;;;;;26.70;16.35;;;9.10;99.90;;;;;;5074203;28;20200;-90
2022/03/30 06:45:25;;;;;;;20.95;15.23;;;9.00;99.90;;;;;;5074641;28;20209;-87
2022/03/30 06:47:51;;;;;;;20.27;15.45;;;9.00;99.90;;;;;;5064977;28;20204;-86
2022/03/30 06:50:19;;;;;;;22.80;14.35;;;9.10;99.90;;;;;;5070139;28;20705;-86
2022/03/30 06:52:46;;;;;;;19.52;13.77;;;9.20;99.90;;;;;;5067921;28;20241;-85
2022/03/30 06:55:14;;;;;;;34.55;15.98;;;9.20;99.90;;;;;;5068390;28;20220;-85
2022/03/30 06:57:42;;;;;;;22.17;14.15;;;9.20;99.90;;;;;;5062644;28;20702;-86
2022/03/30 07:00:12;;;;;;;26.25;15.57;;;9.20;99.90;;;;;;5067545;28;20219;-85
2022/03/30 07:02:40;;;;;;;27.23;16.63;;;9.30;99.90;;;;;;5066431;28;20616;-85
2022/03/30 07:05:07;;;;;;;23.83;16.58;;;9.30;99.90;;;;;;5058136;28;20260;-85
2022/03/30 07:10:20;;;;;;;24.95;16.20;;;9.30;99.90;;;;;;5063913;28;20204;-85
2022/03/30 07:12:48;;;;;;;27.60;19.75;;;9.40;99.90;;;;;;5065819;28;20217;-86
2022/03/30 07:15:16;;;;;;;23.48;18.70;;;9.30;99.90;;;;;;5059528;28;20259;-85
2022/03/30 07:17:45;;;;;;;21.65;17.67;;;9.40;99.90;;;;;;5069112;28;20209;-85
2022/03/30 07:20:12;;;;;;;24.55;17.88;;;9.50;99.90;;;;;;5063428;28;20210;-85
2022/03/30 07:22:39;;;;;;;28.60;17.23;;;9.50;99.90;;;;;;5064504;28;20754;-86
2022/03/30 07:25:07;;;;;;;28.02;17.67;;;9.50;99.90;;;;;;5065318;28;20206;-85
2022/03/30 07:27:33;;;;;;;31.88;19.33;;;9.50;99.90;;;;;;5062142;28;20646;-85
2022/03/30 07:30:00;;;;;;;24.77;17.70;;;9.50;99.90;;;;;;5072125;28;20229;-85
2022/03/30 07:32:29;;;;;;;39.58;18.30;;;9.50;99.90;;;;;;5072231;28;20201;-86
2022/03/30 07:34:55;;;;;;;24.65;16.15;;;9.50;99.90;;;;;;5071887;28;20475;-86
2022/03/30 07:37:22;;;;;;;21.55;15.80;;;9.50;99.90;;;;;;5066863;28;20198;-85
2022/03/30 07:39:49;;;;;;;25.42;16.90;;;9.50;99.90;;;;;;5068467;28;20206;-85
2022/03/30 07:42:16;;;;;;;25.80;17.67;;;9.60;99.90;;;;;;5072512;28;20209;-86
2022/03/30 07:44:43;;;;;;;27.25;16.25;;;9.60;99.90;;;;;;5065837;28;20285;-85
2022/03/30 07:47:10;;;;;;;25.88;16.35;;;9.50;99.90;;;;;;5060559;28;20291;-85
2022/03/30 07:49:39;;;;;;;23.05;16.60;;;9.50;99.90;;;;;;5067203;28;20226;-85
2022/03/30 07:52:06;;;;;;;28.95;16.60;;;9.50;99.90;;;;;;5071983;28;20267;-85
2022/03/30 07:54:33;;;;;;;24.17;14.95;;;9.50;99.90;;;;;;5072742;28;20309;-85
2022/03/30 07:57:00;;;;;;;28.30;15.65;;;9.60;99.90;;;;;;5071567;28;20584;-85
2022/03/30 07:59:27;;;;;;;21.93;15.30;;;9.50;99.90;;;;;;5069327;28;20230;-86
2022/03/30 08:01:57;;;;;;;21.83;13.70;;;9.60;99.90;;;;;;5071116;28;21110;-85
2022/03/30 08:04:24;;;;;;;21.20;14.90;;;9.50;99.90;;;;;;5074427;28;20266;-85
2022/03/30 08:06:52;;;;;;;20.75;14.60;;;9.50;99.90;;;;;;5064642;28;20353;-86
2022/03/30 08:09:19;;;;;;;23.27;15.15;;;9.50;99.90;;;;;;5074489;28;20501;-84
2022/03/30 08:11:46;;;;;;;23.92;15.75;;;9.60;99.90;;;;;;5063856;28;20214;-85
2022/03/30 08:14:13;;;;;;;24.33;14.77;;;9.60;99.90;;;;;;5078339;28;20303;-86
2022/03/30 08:16:41;;;;;;;26.50;16.52;;;9.60;99.90;;;;;;5075895;28;20674;-84
2022/03/30 08:19:08;;;;;;;23.90;15.75;;;9.50;99.90;;;;;;5071503;28;20659;-85
2022/03/30 08:24:22;;;;;;;20.42;15.70;;;9.50;99.90;;;;;;5066809;28;20196;-86
2022/03/30 08:26:49;;;;;;;21.95;14.48;;;9.60;99.90;;;;;;5071914;28;20202;-85
2022/03/30 08:29:16;;;;;;;26.17;14.52;;;9.60;99.90;;;;;;5080740;28;20216;-86
2022/03/30 08:31:43;;;;;;;23.83;13.65;;;9.70;99.90;;;;;;5072662;28;20262;-85
2022/03/30 08:34:10;;;;;;;22.90;14.23;;;9.60;99.90;;;;;;5063863;28;20241;-85
2022/03/30 08:36:37;;;;;;;20.40;13.85;;;9.70;99.90;;;;;;5066484;28;20313;-85
2022/03/30 08:39:10;;;;;;;24.73;13.70;;;9.60;99.90;;;;;;5078109;28;20205;-85
2022/03/30 08:41:41;;;;;;;21.63;12.32;;;9.60;99.90;;;;;;5072738;28;20209;-85
2022/03/30 08:44:08;;;;;;;21.95;13.18;;;9.60;99.90;;;;;;5072805;28;20201;-85
2022/03/30 08:46:37;;;;;;;19.52;13.20;;;9.70;99.90;;;;;;5083738;28;20228;-87
2022/03/30 08:49:04;;;;;;;20.30;12.90;;;9.70;99.90;;;;;;5083669;28;20659;-87
2022/03/30 08:51:33;;;;;;;19.05;12.38;;;9.60;99.90;;;;;;5069808;28;20252;-87
2022/03/30 08:54:00;;;;;;;16.93;12.40;;;9.60;99.90;;;;;;5069261;28;20311;-87
2022/03/30 08:56:28;;;;;;;19.63;12.10;;;9.60;99.90;;;;;;5069289;28;21036;-87
2022/03/30 08:59:01;;;;;;;18.30;13.00;;;9.70;99.90;;;;;;5075391;28;20202;-87
2022/03/30 09:01:33;;;;;;;16.63;13.10;;;9.60;99.90;;;;;;5069178;28;20730;-87
2022/03/30 09:04:02;;;;;;;20.27;12.40;;;9.60;99.90;;;;;;5079525;28;20233;-86
2022/03/30 09:06:40;;;;;;;33.65;13.18;;;9.50;99.90;;;;;;5090587;28;20722;-86
2022/03/30 09:09:07;;;;;;;25.08;13.27;;;9.60;99.90;;;;;;5068356;28;20206;-87
2022/03/30 09:11:45;;;;;;;21.13;12.63;;;9.60;99.90;;;;;;5078412;28;20605;-86
2022/03/30 09:14:13;;;;;;;15.55;12.07;;;9.60;99.90;;;;;;5088728;28;20224;-86
2022/03/30 09:16:42;;;;;;;17.20;12.10;;;9.60;99.90;;;;;;5089387;28;20236;-87
2022/03/30 09:19:11;;;;;;;17.58;13.50;;;9.70;99.90;;;;;;5080365;28;20632;-86
2022/03/30 09:21:42;;;;;;;24.33;13.90;;;9.70;99.90;;;;;;5089804;28;20252;-86
2022/03/30 09:24:42;;;;;;;;;;;;;;;;;;;;;
2022/03/30 09:27:16;;;;;;;24.73;13.27;;;;;;;;;;5059909;28;20735;-86
2022/03/30 09:29:44;;;;;;;21.10;11.50;;;9.70;99.90;;;;;;5065468;28;20617;-86
2022/03/30 09:32:11;;;;;;;22.43;12.03;;;9.70;99.90;;;;;;5062313;28;20346;-88
2022/03/30 09:34:48;;;;;;;21.43;12.40;;;9.70;99.90;;;;;;5069159;28;20692;-87
2022/03/30 09:37:15;;;;;;;23.23;12.60;;;9.80;99.90;;;;;;5066272;28;21338;-88
2022/03/30 09:39:43;;;;;;;14.67;11.10;;;9.80;99.90;;;;;;5066297;28;20630;-89
2022/03/30 09:42:11;;;;;;;17.90;11.33;;;9.80;99.90;;;;;;5069187;28;21244;-88
2022/03/30 09:44:52;;;;;;;26.53;13.37;;;9.80;99.90;;;;;;5068282;28;21214;-88
2022/03/30 09:47:20;;;;;;;22.13;12.33;;;9.90;99.90;;;;;;5065186;28;20625;-88
2022/03/30 09:49:49;;;;;;;19.27;13.30;;;10.00;99.90;;;;;;5071877;28;20633;-88
2022/03/30 09:52:19;;;;;;;20.03;11.27;;;10.10;99.90;;;;;;5066221;28;21057;-88
2022/03/30 09:54:49;;;;;;;18.17;12.40;;;10.00;99.90;;;;;;5066230;28;20653;-90
2022/03/30 09:57:19;;;;;;;18.43;13.43;;;10.00;99.90;;;;;;5066171;28;20621;-88
2022/03/30 10:00:09;;;;;;;22.00;12.33;;;10.30;99.90;;;;;;5062542;28;21495;-88
2022/03/30 10:02:44;;;;;;;20.23;12.87;;;10.20;99.90;;;;;;5067534;28;20686;-88
2022/03/30 10:05:15;;;;;;;31.17;14.53;;;10.30;99.90;;;;;;5065597;28;20633;-88
2022/03/30 10:07:42;;;;;;;20.30;13.37;;;10.30;99.90;;;;;;5077961;28;20630;-86
2022/03/30 10:10:26;;;;;;;23.87;14.10;;;10.40;99.90;;;;;;5075156;28;21160;-84
2022/03/30 10:12:53;;;;;;;19.60;11.87;;;10.30;99.90;;;;;;5071780;28;20629;-85
2022/03/30 10:15:22;;;;;;;18.10;12.27;;;10.40;99.90;;;;;;5067973;28;21001;-86
2022/03/30 10:17:49;;;;;;;18.03;11.40;;;10.60;99.90;;;;;;5066454;28;20629;-86
2022/03/30 10:20:16;;;;;;;21.87;11.57;;;10.70;99.90;;;;;;5081283;28;20664;-85
2022/03/30 10:23:15;;;;;;;23.90;12.13;;;10.80;99.90;;;;;;5068071;28;20663;-85
2022/03/30 10:26:03;;;;;;;18.43;11.53;;;11.00;99.90;;;;;;5064105;28;20654;-85
2022/03/30 10:28:48;;;;;;;19.73;11.67;;;11.10;99.90;;;;;;5068521;28;21017;-86
2022/03/30 10:31:22;;;;;;;18.80;11.47;;;11.00;99.90;;;;;;5079544;28;20965;-85
2022/03/30 10:33:52;;;;;;;17.57;10.43;;;11.20;99.90;;;;;;5068294;28;20657;-85
2022/03/30 10:36:24;;;;;;;16.10;10.50;;;11.20;99.90;;;;;;5047486;28;20622;-85
2022/03/30 10:39:24;;;;;;;21.60;10.53;;;11.00;99.90;;;;;;5065420;28;20700;-86
2022/03/30 10:41:54;;;;;;;20.27;10.90;;;11.00;99.90;;;;;;5066327;28;20632;-86
2022/03/30 10:44:42;;;;;;;14.37;10.10;;;11.00;99.90;;;;;;5067273;28;21246;-85
2022/03/30 10:47:13;;;;;;;16.60;10.30;;;11.00;99.90;;;;;;5077543;28;20631;-87
2022/03/30 10:49:42;;;;;;;15.13;10.73;;;11.00;99.90;;;;;;5086577;28;20655;-84
2022/03/30 10:52:34;;;;;;;16.70;10.30;;;11.00;99.90;;;;;;5085140;28;21173;-85
2022/03/30 10:55:36;;;;;;;15.60;9.83;;;11.00;99.90;;;;;;5086265;28;20655;-86
2022/03/30 10:58:05;;;;;;;18.67;8.37;;;11.00;99.90;;;;;;5086699;28;20642;-85
2022/03/30 11:00:36;;;;;;;12.53;9.87;;;11.00;99.90;;;;;;5087164;28;20723;-85
2022/03/30 11:03:16;;;;;;;11.93;8.23;;;11.10;99.90;;;;;;5086534;28;20655;-85
2022/03/30 11:05:58;;;;;;;13.00;9.03;;;11.20;99.90;;;;;;5048008;28;20622;-86
2022/03/30 11:09:01;;;;;;;14.83;8.70;;;11.20;99.90;;;;;;5047766;28;20713;-85
2022/03/30 11:11:34;;;;;;;20.73;9.57;;;11.20;99.90;;;;;;5043956;28;21271;-85
2022/03/30 11:14:24;;;;;;;11.73;8.77;;;11.20;99.90;;;;;;5048316;28;20634;-84
2022/03/30 11:16:52;;;;;;;17.57;8.63;;;11.20;99.90;;;;;;5047613;28;21203;-85
2022/03/30 11:19:22;;;;;;;17.23;9.40;;;11.00;99.90;;;;;;5048207;28;20621;-86
2022/03/30 11:22:02;;;;;;;15.37;9.00;;;11.10;99.90;;;;;;5048213;28;20725;-83
2022/03/30 11:24:30;;;;;;;17.23;10.53;;;11.00;99.90;;;;;;5054627;28;20621;-84
2022/03/30 11:27:19;;;;;;;21.23;9.53;;;11.20;99.90;;;;;;5067957;28;20720;-85
2022/03/30 11:29:52;;;;;;;11.97;10.60;;;11.20;99.90;;;;;;5068016;28;20621;-85
2022/03/30 11:32:42;;;;;;;16.20;11.23;;;11.00;99.90;;;;;;5067528;28;20740;-85
2022/03/30 11:35:13;;;;;;;12.83;9.77;;;10.90;99.90;;;;;;5067784;28;20683;-84
2022/03/30 11:37:42;;;;;;;16.10;11.30;;;10.90;99.90;;;;;;5067665;28;20724;-85
2022/03/30 11:40:12;;;;;;;15.67;11.60;;;10.90;99.90;;;;;;5067507;28;21291;-85
2022/03/30 11:42:41;;;;;;;15.70;11.17;;;11.00;99.90;;;;;;5066994;28;20626;-85
2022/03/30 11:45:19;;;;;;;15.70;12.40;;;11.00;99.90;;;;;;5066991;28;20628;-84
2022/03/30 11:47:47;;;;;;;14.80;10.43;;;11.00;99.90;;;;;;5067563;28;21182;-84
2022/03/30 11:50:17;;;;;;;17.37;12.20;;;10.90;99.90;;;;;;5066958;28;20664;-85
2022/03/30 11:52:54;;;;;;;19.43;12.90;;;11.00;99.90;;;;;;5075561;28;21487;-84
2022/03/30 11:55:21;;;;;;;24.67;12.63;;;11.00;99.90;;;;;;5065736;28;20685;-86
2022/03/30 11:57:50;;;;;;;19.17;15.00;;;10.90;99.90;;;;;;5077263;28;20643;-83
2022/03/30 12:00:17;;;;;;;17.57;13.53;;;11.10;99.90;;;;;;5067497;28;20613;-85
2022/03/30 12:02:46;;;;;;;20.53;13.00;;;11.10;99.90;;;;;;5067797;28;21019;-85
2022/03/30 12:05:13;;;;;;;15.67;13.43;;;11.00;99.90;;;;;;5066496;28;21552;-85
2022/03/30 12:07:41;;;;;;;18.50;12.73;;;11.00;99.90;;;;;;5069743;28;20625;-86
2022/03/30 12:10:34;;;;;;;18.97;13.33;;;11.10;99.90;;;;;;5065561;28;21038;-84
2022/03/30 12:13:02;;;;;;;18.23;12.97;;;11.10;99.90;;;;;;5067189;28;21352;-85
2022/03/30 12:15:29;;;;;;;16.43;12.30;;;11.30;99.90;;;;;;5067873;28;20656;-84
2022/03/30 12:17:58;;;;;;;19.87;13.43;;;11.30;99.90;;;;;;5071171;28;21191;-84
2022/03/30 12:20:56;;;;;;;19.60;13.50;;;11.00;99.00;;;;;;5070622;28;20678;-85
2022/03/30 12:23:35;;;;;;;18.10;13.70;;;11.00;99.30;;;;;;5069440;28;21447;-85
2022/03/30 12:26:14;;;;;;;19.50;13.50;;;11.00;99.90;;;;;;5075323;28;20687;-84
2022/03/30 12:28:42;;;;;;;18.50;13.80;;;11.00;99.40;;;;;;5073743;28;20719;-85
2022/03/30 12:31:10;;;;;;;19.23;13.40;;;11.20;99.80;;;;;;5073917;28;20678;-83
2022/03/30 12:33:43;;;;;;;15.27;12.93;;;11.20;99.40;;;;;;5069442;28;20633;-85
2022/03/30 12:36:18;;;;;;;18.03;13.00;;;11.10;99.20;;;;;;5071684;28;20689;-83
2022/03/30 12:39:28;;;;;;;19.43;13.57;;;11.20;99.90;;;;;;5068799;28;20770;-84
2022/03/30 12:42:52;;;;;;;24.30;15.83;;;11.20;99.90;;;;;;5071099;28;20629;-84
2022/03/30 12:45:54;;;;;;;21.07;15.10;;;11.20;99.90;;;;;;5062513;28;20625;-86
2022/03/30 12:52:12;;;;;;;24.73;16.27;;;10.20;99.50;;;;;;5013908;28;20629;-87
2022/03/30 12:54:40;;;;;;;23.27;14.57;;;11.00;99.90;;;;;;5076983;28;20683;-85
2022/03/30 12:57:09;;;;;;;15.27;12.13;;;10.80;99.90;;;;;;5088900;28;20682;-85
2022/03/30 12:59:38;;;;;;;17.20;15.10;;;10.50;99.90;;;;;;5077010;28;20633;-86
2022/03/30 13:02:18;;;;;;;18.13;11.63;;;10.30;99.90;;;;;;5084556;28;20660;-85